sensor_id;sensor_type;location;lat;lon;timestamp;temperature;humidity
3699;DHT22;1865;50.918;7.092;2022-07-30T00:00:00;22.10;47.80
3699;DHT22;1865;50.918;7.092;2022-07-30T00:02:25;22.00;48.00
3699;DHT22;1865;50.918;7.092;2022-07-30T00:04:51;22.00;48.10
3699;DHT22;1865;50.918;7.092;2022-07-30T00:07:19;21.90;48.50
3699;DHT22;1865;50.918;7.092;2022-07-30T00:09:53;21.80;48.60
3699;DHT22;1865;50.918;7.092;2022-07-30T00:12:20;21.80;48.70
3699;DHT22;1865;50.918;7.092;2022-07-30T00:14:45;21.80;48.40
3699;DHT22;1865;50.918;7.092;2022-07-30T00:17:11;21.70;48.60
3699;DHT22;1865;50.918;7.092;2022-07-30T00:19:47;21.70;48.70
3699;DHT22;1865;50.918;7.092;2022-07-30T00:22:13;21.70;48.90
3699;DHT22;1865;50.918;7.092;2022-07-30T00:24:39;21.70;48.80
3699;DHT22;1865;50.918;7.092;2022-07-30T00:27:07;21.70;48.70
3699;DHT22;1865;50.918;7.092;2022-07-30T00:29:32;21.70;48.60
3699;DHT22;1865;50.918;7.092;2022-07-30T00:31:58;21.60;48.80
3699;DHT22;1865;50.918;7.092;2022-07-30T00:34:24;21.60;49.00
3699;DHT22;1865;50.918;7.092;2022-07-30T00:36:51;21.60;49.00
3699;DHT22;1865;50.918;7.092;2022-07-30T00:39:17;21.50;49.30
3699;DHT22;1865;50.918;7.092;2022-07-30T00:41:53;21.50;49.40
3699;DHT22;1865;50.918;7.092;2022-07-30T00:44:24;21.50;49.70
3699;DHT22;1865;50.918;7.092;2022-07-30T00:46:51;21.50;49.90
3699;DHT22;1865;50.918;7.092;2022-07-30T00:49:20;21.40;50.00
3699;DHT22;1865;50.918;7.092;2022-07-30T00:51:46;21.30;50.20
3699;DHT22;1865;50.918;7.092;2022-07-30T00:54:13;21.30;50.50
3699;DHT22;1865;50.918;7.092;2022-07-30T00:56:40;21.30;50.50
3699;DHT22;1865;50.918;7.092;2022-07-30T00:59:07;21.20;50.50
3699;DHT22;1865;50.918;7.092;2022-07-30T01:01:35;21.20;51.40
3699;DHT22;1865;50.918;7.092;2022-07-30T01:04:12;21.10;50.90
3699;DHT22;1865;50.918;7.092;2022-07-30T01:06:38;21.00;51.10
3699;DHT22;1865;50.918;7.092;2022-07-30T01:09:06;20.90;51.40
3699;DHT22;1865;50.918;7.092;2022-07-30T01:11:38;20.90;51.40
3699;DHT22;1865;50.918;7.092;2022-07-30T01:14:07;20.90;51.70
3699;DHT22;1865;50.918;7.092;2022-07-30T01:16:35;20.80;51.90
3699;DHT22;1865;50.918;7.092;2022-07-30T01:19:08;20.80;51.90
3699;DHT22;1865;50.918;7.092;2022-07-30T01:22:06;20.90;52.00
3699;DHT22;1865;50.918;7.092;2022-07-30T01:24:37;20.70;51.90
3699;DHT22;1865;50.918;7.092;2022-07-30T01:27:05;20.70;52.20
3699;DHT22;1865;50.918;7.092;2022-07-30T01:29:34;20.70;52.40
3699;DHT22;1865;50.918;7.092;2022-07-30T01:32:01;20.60;52.40
3699;DHT22;1865;50.918;7.092;2022-07-30T01:34:31;20.60;52.40
3699;DHT22;1865;50.918;7.092;2022-07-30T01:37:00;20.60;52.40
3699;DHT22;1865;50.918;7.092;2022-07-30T01:39:26;20.60;52.50
3699;DHT22;1865;50.918;7.092;2022-07-30T01:41:55;20.50;52.60
3699;DHT22;1865;50.918;7.092;2022-07-30T01:44:23;20.50;52.40
3699;DHT22;1865;50.918;7.092;2022-07-30T01:46:51;20.30;53.20
3699;DHT22;1865;50.918;7.092;2022-07-30T01:49:18;20.30;53.10
3699;DHT22;1865;50.918;7.092;2022-07-30T01:51:46;20.20;53.40
3699;DHT22;1865;50.918;7.092;2022-07-30T01:54:17;20.10;53.50
3699;DHT22;1865;50.918;7.092;2022-07-30T01:56:43;20.10;53.70
3699;DHT22;1865;50.918;7.092;2022-07-30T01:59:15;20.10;53.40
3699;DHT22;1865;50.918;7.092;2022-07-30T02:01:42;20.10;53.50
3699;DHT22;1865;50.918;7.092;2022-07-30T02:04:08;20.20;53.30
3699;DHT22;1865;50.918;7.092;2022-07-30T02:06:41;20.20;53.20
3699;DHT22;1865;50.918;7.092;2022-07-30T02:09:09;20.10;54.00
3699;DHT22;1865;50.918;7.092;2022-07-30T02:11:43;20.20;53.30
3699;DHT22;1865;50.918;7.092;2022-07-30T02:14:44;20.20;53.40
3699;DHT22;1865;50.918;7.092;2022-07-30T02:17:16;20.00;53.60
3699;DHT22;1865;50.918;7.092;2022-07-30T02:19:44;20.00;53.50
3699;DHT22;1865;50.918;7.092;2022-07-30T02:22:14;20.00;53.70
3699;DHT22;1865;50.918;7.092;2022-07-30T02:24:42;20.10;53.40
3699;DHT22;1865;50.918;7.092;2022-07-30T02:27:13;20.00;53.50
3699;DHT22;1865;50.918;7.092;2022-07-30T02:29:44;20.00;53.60
3699;DHT22;1865;50.918;7.092;2022-07-30T02:32:14;20.00;53.50
3699;DHT22;1865;50.918;7.092;2022-07-30T02:34:45;19.90;53.40
3699;DHT22;1865;50.918;7.092;2022-07-30T02:37:13;19.90;53.50
3699;DHT22;1865;50.918;7.092;2022-07-30T02:39:41;19.90;53.60
3699;DHT22;1865;50.918;7.092;2022-07-30T02:42:09;19.90;53.70
3699;DHT22;1865;50.918;7.092;2022-07-30T02:44:37;19.80;53.50
3699;DHT22;1865;50.918;7.092;2022-07-30T02:47:06;19.80;53.70
3699;DHT22;1865;50.918;7.092;2022-07-30T02:49:33;19.70;53.80
3699;DHT22;1865;50.918;7.092;2022-07-30T02:52:03;19.70;53.60
3699;DHT22;1865;50.918;7.092;2022-07-30T02:54:34;19.60;54.00
3699;DHT22;1865;50.918;7.092;2022-07-30T02:57:01;19.60;54.40
3699;DHT22;1865;50.918;7.092;2022-07-30T02:59:30;19.60;54.40
3699;DHT22;1865;50.918;7.092;2022-07-30T03:01:56;19.60;54.20
3699;DHT22;1865;50.918;7.092;2022-07-30T03:04:23;19.50;54.50
3699;DHT22;1865;50.918;7.092;2022-07-30T03:06:52;19.50;54.50
3699;DHT22;1865;50.918;7.092;2022-07-30T03:09:21;19.60;54.30
3699;DHT22;1865;50.918;7.092;2022-07-30T03:11:50;19.60;54.30
3699;DHT22;1865;50.918;7.092;2022-07-30T03:14:16;19.50;54.10
3699;DHT22;1865;50.918;7.092;2022-07-30T03:16:45;19.50;54.40
3699;DHT22;1865;50.918;7.092;2022-07-30T03:19:14;19.40;54.50
3699;DHT22;1865;50.918;7.092;2022-07-30T03:21:42;19.30;54.80
3699;DHT22;1865;50.918;7.092;2022-07-30T03:24:11;19.30;54.90
3699;DHT22;1865;50.918;7.092;2022-07-30T03:26:41;19.30;54.70
3699;DHT22;1865;50.918;7.092;2022-07-30T03:29:08;19.30;55.00
3699;DHT22;1865;50.918;7.092;2022-07-30T03:31:37;19.30;55.00
3699;DHT22;1865;50.918;7.092;2022-07-30T03:34:04;19.30;55.10
3699;DHT22;1865;50.918;7.092;2022-07-30T03:36:31;19.30;54.90
3699;DHT22;1865;50.918;7.092;2022-07-30T03:38:57;19.40;54.90
3699;DHT22;1865;50.918;7.092;2022-07-30T03:41:26;19.40;54.70
3699;DHT22;1865;50.918;7.092;2022-07-30T03:43:52;19.40;54.70
3699;DHT22;1865;50.918;7.092;2022-07-30T03:46:18;19.50;54.50
3699;DHT22;1865;50.918;7.092;2022-07-30T03:48:46;19.40;54.30
3699;DHT22;1865;50.918;7.092;2022-07-30T03:51:12;19.40;54.60
3699;DHT22;1865;50.918;7.092;2022-07-30T03:53:39;19.30;54.70
3699;DHT22;1865;50.918;7.092;2022-07-30T03:56:06;19.30;54.50
3699;DHT22;1865;50.918;7.092;2022-07-30T03:58:32;19.30;54.50
3699;DHT22;1865;50.918;7.092;2022-07-30T04:00:58;19.30;54.50
3699;DHT22;1865;50.918;7.092;2022-07-30T04:03:29;19.20;54.70
3699;DHT22;1865;50.918;7.092;2022-07-30T04:05:55;19.10;54.80
3699;DHT22;1865;50.918;7.092;2022-07-30T04:08:23;19.10;55.10
3699;DHT22;1865;50.918;7.092;2022-07-30T04:10:49;19.10;55.10
3699;DHT22;1865;50.918;7.092;2022-07-30T04:13:15;19.10;55.10
3699;DHT22;1865;50.918;7.092;2022-07-30T04:18:36;19.10;55.00
3699;DHT22;1865;50.918;7.092;2022-07-30T04:21:06;19.20;54.70
3699;DHT22;1865;50.918;7.092;2022-07-30T04:23:35;19.20;54.50
3699;DHT22;1865;50.918;7.092;2022-07-30T04:26:01;19.10;54.80
3699;DHT22;1865;50.918;7.092;2022-07-30T04:28:27;19.10;55.20
3699;DHT22;1865;50.918;7.092;2022-07-30T04:30:53;19.10;54.80
3699;DHT22;1865;50.918;7.092;2022-07-30T04:33:20;19.10;55.00
3699;DHT22;1865;50.918;7.092;2022-07-30T04:35:46;19.10;54.80
3699;DHT22;1865;50.918;7.092;2022-07-30T04:38:16;19.10;54.80
3699;DHT22;1865;50.918;7.092;2022-07-30T04:40:42;19.10;55.30
3699;DHT22;1865;50.918;7.092;2022-07-30T04:43:08;19.00;55.10
3699;DHT22;1865;50.918;7.092;2022-07-30T04:45:34;19.00;55.00
3699;DHT22;1865;50.918;7.092;2022-07-30T04:48:02;19.10;55.10
3699;DHT22;1865;50.918;7.092;2022-07-30T04:50:28;19.00;55.00
3699;DHT22;1865;50.918;7.092;2022-07-30T04:52:55;19.10;55.20
3699;DHT22;1865;50.918;7.092;2022-07-30T04:55:21;19.10;55.40
3699;DHT22;1865;50.918;7.092;2022-07-30T04:57:49;19.10;55.30
3699;DHT22;1865;50.918;7.092;2022-07-30T05:00:16;19.10;55.50
3699;DHT22;1865;50.918;7.092;2022-07-30T05:02:43;19.00;55.60
3699;DHT22;1865;50.918;7.092;2022-07-30T05:05:14;19.10;55.50
3699;DHT22;1865;50.918;7.092;2022-07-30T05:07:40;19.20;55.40
3699;DHT22;1865;50.918;7.092;2022-07-30T05:10:06;19.30;55.10
3699;DHT22;1865;50.918;7.092;2022-07-30T05:12:38;19.50;55.00
3699;DHT22;1865;50.918;7.092;2022-07-30T05:15:05;19.60;54.60
3699;DHT22;1865;50.918;7.092;2022-07-30T05:17:31;19.70;54.40
3699;DHT22;1865;50.918;7.092;2022-07-30T05:19:57;19.70;54.40
3699;DHT22;1865;50.918;7.092;2022-07-30T05:22:23;19.80;54.40
3699;DHT22;1865;50.918;7.092;2022-07-30T05:24:52;19.80;54.30
3699;DHT22;1865;50.918;7.092;2022-07-30T05:27:17;19.80;54.50
3699;DHT22;1865;50.918;7.092;2022-07-30T05:29:45;19.90;54.60
3699;DHT22;1865;50.918;7.092;2022-07-30T05:32:16;20.00;54.30
3699;DHT22;1865;50.918;7.092;2022-07-30T05:34:42;20.00;54.10
3699;DHT22;1865;50.918;7.092;2022-07-30T05:37:07;20.20;53.90
3699;DHT22;1865;50.918;7.092;2022-07-30T05:39:33;20.20;53.50
3699;DHT22;1865;50.918;7.092;2022-07-30T05:42:00;20.30;53.50
3699;DHT22;1865;50.918;7.092;2022-07-30T05:44:25;20.40;53.20
3699;DHT22;1865;50.918;7.092;2022-07-30T05:46:51;20.50;53.10
3699;DHT22;1865;50.918;7.092;2022-07-30T05:49:18;20.60;52.70
3699;DHT22;1865;50.918;7.092;2022-07-30T05:51:43;20.70;52.80
3699;DHT22;1865;50.918;7.092;2022-07-30T05:54:10;20.70;52.50
3699;DHT22;1865;50.918;7.092;2022-07-30T05:56:37;20.80;52.40
3699;DHT22;1865;50.918;7.092;2022-07-30T05:59:05;20.90;53.10
3699;DHT22;1865;50.918;7.092;2022-07-30T06:01:31;20.90;52.90
3699;DHT22;1865;50.918;7.092;2022-07-30T06:03:57;21.00;52.90
3699;DHT22;1865;50.918;7.092;2022-07-30T06:06:22;21.10;53.30
3699;DHT22;1865;50.918;7.092;2022-07-30T06:08:48;21.20;53.60
3699;DHT22;1865;50.918;7.092;2022-07-30T06:11:14;21.30;54.70
3699;DHT22;1865;50.918;7.092;2022-07-30T06:13:41;21.40;54.70
3699;DHT22;1865;50.918;7.092;2022-07-30T06:16:06;21.40;54.60
3699;DHT22;1865;50.918;7.092;2022-07-30T06:18:34;21.50;54.50
3699;DHT22;1865;50.918;7.092;2022-07-30T06:21:00;21.60;54.40
3699;DHT22;1865;50.918;7.092;2022-07-30T06:23:27;21.60;54.40
3699;DHT22;1865;50.918;7.092;2022-07-30T06:25:53;21.70;54.60
3699;DHT22;1865;50.918;7.092;2022-07-30T06:28:18;21.80;54.50
3699;DHT22;1865;50.918;7.092;2022-07-30T06:30:45;21.80;54.50
3699;DHT22;1865;50.918;7.092;2022-07-30T06:33:12;21.90;54.60
3699;DHT22;1865;50.918;7.092;2022-07-30T06:35:38;22.00;54.10
3699;DHT22;1865;50.918;7.092;2022-07-30T06:38:04;22.00;54.20
3699;DHT22;1865;50.918;7.092;2022-07-30T06:40:29;22.10;53.90
3699;DHT22;1865;50.918;7.092;2022-07-30T06:42:55;22.10;53.90
3699;DHT22;1865;50.918;7.092;2022-07-30T06:45:22;22.20;53.80
3699;DHT22;1865;50.918;7.092;2022-07-30T06:47:57;22.10;53.90
3699;DHT22;1865;50.918;7.092;2022-07-30T06:50:23;22.20;53.80
3699;DHT22;1865;50.918;7.092;2022-07-30T06:52:49;22.30;53.50
3699;DHT22;1865;50.918;7.092;2022-07-30T06:55:17;22.30;53.70
3699;DHT22;1865;50.918;7.092;2022-07-30T06:57:42;22.30;54.00
3699;DHT22;1865;50.918;7.092;2022-07-30T07:00:08;22.30;53.70
3699;DHT22;1865;50.918;7.092;2022-07-30T07:02:34;22.40;53.60
3699;DHT22;1865;50.918;7.092;2022-07-30T07:05:00;22.40;53.40
3699;DHT22;1865;50.918;7.092;2022-07-30T07:07:26;22.40;53.50
3699;DHT22;1865;50.918;7.092;2022-07-30T07:09:52;22.40;53.30
3699;DHT22;1865;50.918;7.092;2022-07-30T07:12:17;22.30;53.90
3699;DHT22;1865;50.918;7.092;2022-07-30T07:14:44;22.40;53.60
3699;DHT22;1865;50.918;7.092;2022-07-30T07:17:11;22.60;53.40
3699;DHT22;1865;50.918;7.092;2022-07-30T07:19:37;22.70;53.20
3699;DHT22;1865;50.918;7.092;2022-07-30T07:22:05;22.80;52.80
3699;DHT22;1865;50.918;7.092;2022-07-30T07:24:31;22.90;53.10
3699;DHT22;1865;50.918;7.092;2022-07-30T07:26:58;22.90;53.10
3699;DHT22;1865;50.918;7.092;2022-07-30T07:29:24;22.90;52.80
3699;DHT22;1865;50.918;7.092;2022-07-30T07:31:49;22.90;52.70
3699;DHT22;1865;50.918;7.092;2022-07-30T07:34:19;23.00;52.70
3699;DHT22;1865;50.918;7.092;2022-07-30T07:36:45;23.10;52.40
3699;DHT22;1865;50.918;7.092;2022-07-30T07:39:12;23.10;52.10
3699;DHT22;1865;50.918;7.092;2022-07-30T07:41:37;23.10;52.00
3699;DHT22;1865;50.918;7.092;2022-07-30T07:44:04;23.20;52.00
3699;DHT22;1865;50.918;7.092;2022-07-30T07:46:30;23.20;52.20
3699;DHT22;1865;50.918;7.092;2022-07-30T07:48:57;23.20;51.90
3699;DHT22;1865;50.918;7.092;2022-07-30T07:51:25;23.30;51.60
3699;DHT22;1865;50.918;7.092;2022-07-30T07:53:50;23.30;51.80
3699;DHT22;1865;50.918;7.092;2022-07-30T07:56:16;23.20;50.70
3699;DHT22;1865;50.918;7.092;2022-07-30T07:58:43;23.20;51.20
3699;DHT22;1865;50.918;7.092;2022-07-30T08:01:10;23.20;50.80
3699;DHT22;1865;50.918;7.092;2022-07-30T08:03:36;23.20;50.70
3699;DHT22;1865;50.918;7.092;2022-07-30T08:06:01;23.30;50.60
3699;DHT22;1865;50.918;7.092;2022-07-30T08:08:27;23.40;50.30
3699;DHT22;1865;50.918;7.092;2022-07-30T08:10:53;23.40;49.80
3699;DHT22;1865;50.918;7.092;2022-07-30T08:13:19;23.40;49.20
3699;DHT22;1865;50.918;7.092;2022-07-30T08:15:49;23.40;49.30
3699;DHT22;1865;50.918;7.092;2022-07-30T08:18:15;23.40;49.30
3699;DHT22;1865;50.918;7.092;2022-07-30T08:20:40;23.40;48.70
3699;DHT22;1865;50.918;7.092;2022-07-30T08:23:08;23.40;49.20
3699;DHT22;1865;50.918;7.092;2022-07-30T08:25:36;23.30;49.90
3699;DHT22;1865;50.918;7.092;2022-07-30T08:28:01;23.30;49.80
3699;DHT22;1865;50.918;7.092;2022-07-30T08:30:29;23.40;49.60
3699;DHT22;1865;50.918;7.092;2022-07-30T08:32:55;23.50;49.20
3699;DHT22;1865;50.918;7.092;2022-07-30T08:35:21;23.70;48.80
3699;DHT22;1865;50.918;7.092;2022-07-30T08:37:47;23.90;48.50
3699;DHT22;1865;50.918;7.092;2022-07-30T08:40:13;23.90;48.00
3699;DHT22;1865;50.918;7.092;2022-07-30T08:42:40;23.80;48.00
3699;DHT22;1865;50.918;7.092;2022-07-30T08:45:07;23.80;48.30
3699;DHT22;1865;50.918;7.092;2022-07-30T08:47:33;23.90;48.10
3699;DHT22;1865;50.918;7.092;2022-07-30T08:50:05;24.10;47.70
3699;DHT22;1865;50.918;7.092;2022-07-30T08:52:35;24.00;45.90
3699;DHT22;1865;50.918;7.092;2022-07-30T08:55:11;24.10;46.90
3699;DHT22;1865;50.918;7.092;2022-07-30T08:57:39;24.20;46.90
3699;DHT22;1865;50.918;7.092;2022-07-30T09:00:06;24.20;46.60
3699;DHT22;1865;50.918;7.092;2022-07-30T09:02:33;24.20;46.70
3699;DHT22;1865;50.918;7.092;2022-07-30T09:04:59;24.40;46.50
3699;DHT22;1865;50.918;7.092;2022-07-30T09:07:25;24.40;46.20
3699;DHT22;1865;50.918;7.092;2022-07-30T09:09:50;24.50;45.30
3699;DHT22;1865;50.918;7.092;2022-07-30T09:12:40;24.40;44.70
3699;DHT22;1865;50.918;7.092;2022-07-30T09:15:13;24.30;45.30
3699;DHT22;1865;50.918;7.092;2022-07-30T09:20:13;24.60;45.30
3699;DHT22;1865;50.918;7.092;2022-07-30T09:22:51;24.70;44.20
3699;DHT22;1865;50.918;7.092;2022-07-30T09:25:42;24.70;44.70
3699;DHT22;1865;50.918;7.092;2022-07-30T09:28:09;24.80;44.60
3699;DHT22;1865;50.918;7.092;2022-07-30T09:30:53;24.90;44.70
3699;DHT22;1865;50.918;7.092;2022-07-30T09:33:32;25.00;43.80
3699;DHT22;1865;50.918;7.092;2022-07-30T09:35:58;25.10;43.80
3699;DHT22;1865;50.918;7.092;2022-07-30T09:38:27;25.20;42.10
3699;DHT22;1865;50.918;7.092;2022-07-30T09:40:55;25.30;43.30
3699;DHT22;1865;50.918;7.092;2022-07-30T09:43:22;25.40;42.30
3699;DHT22;1865;50.918;7.092;2022-07-30T09:45:55;25.40;41.90
3699;DHT22;1865;50.918;7.092;2022-07-30T09:48:26;25.40;41.80
3699;DHT22;1865;50.918;7.092;2022-07-30T09:50:54;25.40;42.10
3699;DHT22;1865;50.918;7.092;2022-07-30T09:53:21;25.60;41.60
3699;DHT22;1865;50.918;7.092;2022-07-30T09:55:51;25.80;41.50
3699;DHT22;1865;50.918;7.092;2022-07-30T09:58:17;25.80;40.60
3699;DHT22;1865;50.918;7.092;2022-07-30T10:00:43;25.90;40.30
3699;DHT22;1865;50.918;7.092;2022-07-30T10:03:20;26.00;40.10
3699;DHT22;1865;50.918;7.092;2022-07-30T10:05:55;26.00;41.10
3699;DHT22;1865;50.918;7.092;2022-07-30T10:08:41;26.20;40.70
3699;DHT22;1865;50.918;7.092;2022-07-30T10:11:13;26.10;40.70
3699;DHT22;1865;50.918;7.092;2022-07-30T10:13:39;26.20;41.50
3699;DHT22;1865;50.918;7.092;2022-07-30T10:16:05;26.10;41.10
3699;DHT22;1865;50.918;7.092;2022-07-30T10:18:33;26.10;41.60
3699;DHT22;1865;50.918;7.092;2022-07-30T10:21:00;26.00;41.80
3699;DHT22;1865;50.918;7.092;2022-07-30T10:23:27;25.90;41.50
3699;DHT22;1865;50.918;7.092;2022-07-30T10:26:00;26.00;41.40
3699;DHT22;1865;50.918;7.092;2022-07-30T10:28:31;26.00;39.10
3699;DHT22;1865;50.918;7.092;2022-07-30T10:30:57;26.20;40.40
3699;DHT22;1865;50.918;7.092;2022-07-30T10:33:28;26.30;39.00
3699;DHT22;1865;50.918;7.092;2022-07-30T10:35:54;26.50;39.00
3699;DHT22;1865;50.918;7.092;2022-07-30T10:38:23;26.60;38.20
3699;DHT22;1865;50.918;7.092;2022-07-30T10:44:30;26.30;38.70
3699;DHT22;1865;50.918;7.092;2022-07-30T10:47:02;26.50;39.50
3699;DHT22;1865;50.918;7.092;2022-07-30T10:49:30;26.50;36.80
3699;DHT22;1865;50.918;7.092;2022-07-30T10:51:59;26.60;37.10
3699;DHT22;1865;50.918;7.092;2022-07-30T10:54:41;26.60;37.30
3699;DHT22;1865;50.918;7.092;2022-07-30T10:57:11;26.80;37.20
3699;DHT22;1865;50.918;7.092;2022-07-30T11:02:28;27.10;36.30
3699;DHT22;1865;50.918;7.092;2022-07-30T11:07:47;27.40;35.40
3699;DHT22;1865;50.918;7.092;2022-07-30T11:10:38;27.30;34.20
3699;DHT22;1865;50.918;7.092;2022-07-30T11:13:05;27.30;34.20
3699;DHT22;1865;50.918;7.092;2022-07-30T11:16:11;27.50;34.00
3699;DHT22;1865;50.918;7.092;2022-07-30T11:21:34;27.50;33.80
3699;DHT22;1865;50.918;7.092;2022-07-30T11:24:00;27.90;33.20
3699;DHT22;1865;50.918;7.092;2022-07-30T11:29:05;28.70;31.40
3699;DHT22;1865;50.918;7.092;2022-07-30T11:31:35;28.70;31.40
3699;DHT22;1865;50.918;7.092;2022-07-30T11:34:25;28.90;30.10
3699;DHT22;1865;50.918;7.092;2022-07-30T11:37:12;28.70;28.00
3699;DHT22;1865;50.918;7.092;2022-07-30T11:47:50;28.20;29.00
3699;DHT22;1865;50.918;7.092;2022-07-30T11:50:26;28.20;29.80
3699;DHT22;1865;50.918;7.092;2022-07-30T11:55:35;28.70;30.00
3699;DHT22;1865;50.918;7.092;2022-07-30T11:58:31;28.90;30.00
3699;DHT22;1865;50.918;7.092;2022-07-30T12:01:06;29.20;29.00
3699;DHT22;1865;50.918;7.092;2022-07-30T12:03:39;29.40;27.10
3699;DHT22;1865;50.918;7.092;2022-07-30T12:06:07;29.70;27.50
3699;DHT22;1865;50.918;7.092;2022-07-30T12:08:44;29.70;28.10
3699;DHT22;1865;50.918;7.092;2022-07-30T12:11:10;29.80;28.10
3699;DHT22;1865;50.918;7.092;2022-07-30T12:13:37;29.70;28.40
3699;DHT22;1865;50.918;7.092;2022-07-30T12:16:08;29.50;28.60
3699;DHT22;1865;50.918;7.092;2022-07-30T12:18:36;29.70;28.90
3699;DHT22;1865;50.918;7.092;2022-07-30T12:21:06;29.80;28.30
3699;DHT22;1865;50.918;7.092;2022-07-30T12:23:34;29.60;25.30
3699;DHT22;1865;50.918;7.092;2022-07-30T12:26:02;29.70;26.10
3699;DHT22;1865;50.918;7.092;2022-07-30T12:28:30;29.70;26.70
3699;DHT22;1865;50.918;7.092;2022-07-30T12:30:58;30.00;27.80
3699;DHT22;1865;50.918;7.092;2022-07-30T12:33:24;30.20;27.60
3699;DHT22;1865;50.918;7.092;2022-07-30T12:35:56;30.50;26.80
3699;DHT22;1865;50.918;7.092;2022-07-30T12:38:26;31.30;25.60
3699;DHT22;1865;50.918;7.092;2022-07-30T12:40:59;32.00;24.60
3699;DHT22;1865;50.918;7.092;2022-07-30T12:46:17;32.60;24.20
3699;DHT22;1865;50.918;7.092;2022-07-30T12:49:01;32.80;22.60
3699;DHT22;1865;50.918;7.092;2022-07-30T12:51:32;32.10;23.00
3699;DHT22;1865;50.918;7.092;2022-07-30T12:54:01;31.70;23.60
3699;DHT22;1865;50.918;7.092;2022-07-30T12:56:38;31.50;24.60
3699;DHT22;1865;50.918;7.092;2022-07-30T12:59:04;31.50;25.30
3699;DHT22;1865;50.918;7.092;2022-07-30T13:01:45;31.40;25.40
3699;DHT22;1865;50.918;7.092;2022-07-30T13:04:12;31.40;25.60
3699;DHT22;1865;50.918;7.092;2022-07-30T13:06:38;31.50;25.30
3699;DHT22;1865;50.918;7.092;2022-07-30T13:09:19;31.50;25.00
3699;DHT22;1865;50.918;7.092;2022-07-30T13:11:45;31.70;24.80
3699;DHT22;1865;50.918;7.092;2022-07-30T13:14:12;31.90;24.30
3699;DHT22;1865;50.918;7.092;2022-07-30T13:16:40;32.50;23.10
3699;DHT22;1865;50.918;7.092;2022-07-30T13:19:07;32.90;22.80
3699;DHT22;1865;50.918;7.092;2022-07-30T13:21:39;33.20;23.30
3699;DHT22;1865;50.918;7.092;2022-07-30T13:24:06;33.40;22.50
3699;DHT22;1865;50.918;7.092;2022-07-30T13:26:32;33.30;23.00
3699;DHT22;1865;50.918;7.092;2022-07-30T13:29:06;33.60;22.60
3699;DHT22;1865;50.918;7.092;2022-07-30T13:31:32;34.00;22.80
3699;DHT22;1865;50.918;7.092;2022-07-30T13:33:58;35.20;21.20
3699;DHT22;1865;50.918;7.092;2022-07-30T13:36:29;35.30;21.70
3699;DHT22;1865;50.918;7.092;2022-07-30T13:38:55;35.90;20.60
3699;DHT22;1865;50.918;7.092;2022-07-30T13:41:22;36.50;19.90
3699;DHT22;1865;50.918;7.092;2022-07-30T13:43:48;37.40;19.60
3699;DHT22;1865;50.918;7.092;2022-07-30T13:46:13;38.20;18.80
3699;DHT22;1865;50.918;7.092;2022-07-30T13:48:40;38.90;17.90
3699;DHT22;1865;50.918;7.092;2022-07-30T13:51:06;38.80;18.10
3699;DHT22;1865;50.918;7.092;2022-07-30T13:53:31;38.70;18.00
3699;DHT22;1865;50.918;7.092;2022-07-30T13:55:57;38.30;18.50
3699;DHT22;1865;50.918;7.092;2022-07-30T13:58:26;38.20;18.80
3699;DHT22;1865;50.918;7.092;2022-07-30T14:00:52;37.50;19.30
3699;DHT22;1865;50.918;7.092;2022-07-30T14:03:18;36.50;19.70
3699;DHT22;1865;50.918;7.092;2022-07-30T14:05:44;35.20;20.20
3699;DHT22;1865;50.918;7.092;2022-07-30T14:08:10;34.40;21.70
3699;DHT22;1865;50.918;7.092;2022-07-30T14:10:38;34.60;22.10
3699;DHT22;1865;50.918;7.092;2022-07-30T14:13:13;35.10;21.20
3699;DHT22;1865;50.918;7.092;2022-07-30T14:15:38;35.80;20.70
3699;DHT22;1865;50.918;7.092;2022-07-30T14:18:05;36.70;19.90
3699;DHT22;1865;50.918;7.092;2022-07-30T14:20:31;36.90;19.50
3699;DHT22;1865;50.918;7.092;2022-07-30T14:22:58;36.80;19.80
3699;DHT22;1865;50.918;7.092;2022-07-30T14:25:23;36.50;20.00
3699;DHT22;1865;50.918;7.092;2022-07-30T14:27:49;36.00;20.60
3699;DHT22;1865;50.918;7.092;2022-07-30T14:30:15;35.50;20.80
3699;DHT22;1865;50.918;7.092;2022-07-30T14:32:44;34.90;21.20
3699;DHT22;1865;50.918;7.092;2022-07-30T14:35:14;34.20;22.20
3699;DHT22;1865;50.918;7.092;2022-07-30T14:37:41;33.40;23.20
3699;DHT22;1865;50.918;7.092;2022-07-30T14:40:09;33.10;24.10
3699;DHT22;1865;50.918;7.092;2022-07-30T14:42:37;32.60;23.90
3699;DHT22;1865;50.918;7.092;2022-07-30T14:45:07;32.40;24.40
3699;DHT22;1865;50.918;7.092;2022-07-30T14:47:33;32.30;24.60
3699;DHT22;1865;50.918;7.092;2022-07-30T14:50:00;32.20;24.80
3699;DHT22;1865;50.918;7.092;2022-07-30T14:52:26;31.90;24.70
3699;DHT22;1865;50.918;7.092;2022-07-30T14:54:57;31.80;24.70
3699;DHT22;1865;50.918;7.092;2022-07-30T14:57:25;31.70;25.00
3699;DHT22;1865;50.918;7.092;2022-07-30T14:59:50;31.60;25.20
3699;DHT22;1865;50.918;7.092;2022-07-30T15:02:16;31.50;25.60
3699;DHT22;1865;50.918;7.092;2022-07-30T15:04:42;31.40;25.80
3699;DHT22;1865;50.918;7.092;2022-07-30T15:07:08;31.40;25.90
3699;DHT22;1865;50.918;7.092;2022-07-30T15:09:34;31.30;26.20
3699;DHT22;1865;50.918;7.092;2022-07-30T15:11:59;31.20;26.30
3699;DHT22;1865;50.918;7.092;2022-07-30T15:14:27;31.10;26.40
3699;DHT22;1865;50.918;7.092;2022-07-30T15:16:53;31.20;26.40
3699;DHT22;1865;50.918;7.092;2022-07-30T15:19:20;31.10;26.10
3699;DHT22;1865;50.918;7.092;2022-07-30T15:21:46;31.00;26.40
3699;DHT22;1865;50.918;7.092;2022-07-30T15:24:11;31.00;26.60
3699;DHT22;1865;50.918;7.092;2022-07-30T15:26:37;31.00;26.10
3699;DHT22;1865;50.918;7.092;2022-07-30T15:29:04;31.00;26.40
3699;DHT22;1865;50.918;7.092;2022-07-30T15:31:33;31.00;26.50
3699;DHT22;1865;50.918;7.092;2022-07-30T15:33:58;31.00;26.50
3699;DHT22;1865;50.918;7.092;2022-07-30T15:36:24;30.80;25.70
3699;DHT22;1865;50.918;7.092;2022-07-30T15:38:51;30.70;26.20
3699;DHT22;1865;50.918;7.092;2022-07-30T15:41:19;30.70;26.20
3699;DHT22;1865;50.918;7.092;2022-07-30T15:43:46;30.70;26.50
3699;DHT22;1865;50.918;7.092;2022-07-30T15:46:11;30.70;26.50
3699;DHT22;1865;50.918;7.092;2022-07-30T15:48:37;30.60;26.90
3699;DHT22;1865;50.918;7.092;2022-07-30T15:51:04;30.60;26.70
3699;DHT22;1865;50.918;7.092;2022-07-30T15:53:32;30.70;26.90
3699;DHT22;1865;50.918;7.092;2022-07-30T15:55:59;30.80;26.80
3699;DHT22;1865;50.918;7.092;2022-07-30T15:58:24;30.80;26.10
3699;DHT22;1865;50.918;7.092;2022-07-30T16:00:51;30.80;26.00
3699;DHT22;1865;50.918;7.092;2022-07-30T16:03:20;30.90;26.10
3699;DHT22;1865;50.918;7.092;2022-07-30T16:05:46;30.90;25.70
3699;DHT22;1865;50.918;7.092;2022-07-30T16:08:11;31.10;26.20
3699;DHT22;1865;50.918;7.092;2022-07-30T16:10:38;31.10;25.80
3699;DHT22;1865;50.918;7.092;2022-07-30T16:13:06;31.10;25.30
3699;DHT22;1865;50.918;7.092;2022-07-30T16:15:32;31.20;25.50
3699;DHT22;1865;50.918;7.092;2022-07-30T16:18:00;31.10;25.10
3699;DHT22;1865;50.918;7.092;2022-07-30T16:20:25;31.00;25.20
3699;DHT22;1865;50.918;7.092;2022-07-30T16:22:53;30.80;24.80
3699;DHT22;1865;50.918;7.092;2022-07-30T16:25:19;30.70;24.70
3699;DHT22;1865;50.918;7.092;2022-07-30T16:27:44;30.70;24.80
3699;DHT22;1865;50.918;7.092;2022-07-30T16:30:11;30.60;24.70
3699;DHT22;1865;50.918;7.092;2022-07-30T16:32:37;30.70;25.00
3699;DHT22;1865;50.918;7.092;2022-07-30T16:35:04;30.70;25.20
3699;DHT22;1865;50.918;7.092;2022-07-30T16:37:31;30.70;25.20
3699;DHT22;1865;50.918;7.092;2022-07-30T16:39:58;30.60;25.30
3699;DHT22;1865;50.918;7.092;2022-07-30T16:42:23;30.50;25.70